Time;durP1;ratioP1;P1;durP2;ratioP2;P2;SDS_P1;SDS_P2;PMS_P1;PMS_P2;Temp;Humidity;BMP_temperature;BMP_pressure;BME280_temperature;BME280_humidity;BME280_pressure;Samples;Min_cycle;Max_cycle;Signal;HPM_P1;HPM_P2
2023/09/06 00:00:33;;;;;;;;;;;25.30;70.40;;;;;;5080330;28;20379;-55
2023/09/06 00:02:58;;;;;;;;;;;25.20;70.30;;;;;;5094978;28;20372;-57
2023/09/06 00:05:24;;;;;;;;;;;25.30;70.30;;;;;;5094857;28;19908;-56
2023/09/06 00:07:50;;;;;;;;;;;25.20;70.30;;;;;;5092332;28;19916;-56
2023/09/06 00:10:15;;;;;;;;;;;25.20;70.10;;;;;;5094824;28;19912;-56
2023/09/06 00:12:41;;;;;;;;;;;25.20;70.20;;;;;;5094807;28;19912;-56
2023/09/06 00:15:08;;;;;;;;;;;25.20;70.10;;;;;;5092210;28;19912;-56
2023/09/06 00:17:37;;;;;;;;;;;25.20;70.10;;;;;;5094601;28;20287;-56
2023/09/06 00:20:16;;;;;;;;;;;25.20;70.10;;;;;;5094402;28;19916;-56
2023/09/06 00:22:41;;;;;;;;;;;25.20;70.20;;;;;;5101192;28;20399;-56
2023/09/06 00:25:08;;;;;;;;;;;25.20;70.20;;;;;;5088808;28;19919;-56
2023/09/06 00:27:33;;;;;;;;;;;25.20;70.30;;;;;;5094428;28;19934;-56
2023/09/06 00:29:58;;;;;;;;;;;25.10;70.30;;;;;;5091956;28;19908;-55
2023/09/06 00:32:24;;;;;;;;;;;25.20;70.40;;;;;;5094309;28;19915;-56
2023/09/06 00:34:49;;;;;;;;;;;25.20;70.30;;;;;;5094173;28;19927;-56
2023/09/06 00:37:15;;;;;;;;;;;25.10;70.20;;;;;;5092754;28;19912;-56
2023/09/06 00:39:40;;;;;;;;;;;25.10;70.30;;;;;;5092798;28;19919;-56
2023/09/06 00:42:06;;;;;;;;;;;25.10;70.50;;;;;;5093485;28;19943;-56
2023/09/06 00:44:31;;;;;;;;;;;25.10;70.30;;;;;;5093932;28;19915;-56
2023/09/06 00:46:59;;;;;;;;;;;25.10;70.30;;;;;;5092388;28;19915;-56
2023/09/06 00:49:24;;;;;;;;;;;25.10;70.30;;;;;;5092872;28;19923;-56
2023/09/06 00:51:50;;;;;;;;;;;25.10;70.30;;;;;;5093905;28;20395;-56
2023/09/06 00:54:15;;;;;;;;;;;25.10;70.50;;;;;;5093891;28;19911;-56
2023/09/06 00:56:40;;;;;;;;;;;25.10;70.20;;;;;;5084656;28;19966;-56
2023/09/06 00:59:10;;;;;;;;;;;25.10;70.20;;;;;;5092481;28;19912;-56
2023/09/06 01:01:36;;;;;;;;;;;25.10;70.20;;;;;;5091588;28;20265;-56
2023/09/06 01:04:01;;;;;;;;;;;25.10;70.10;;;;;;5093863;28;19916;-56
2023/09/06 01:06:27;;;;;;;;;;;25.10;70.20;;;;;;5093637;28;19908;-56
2023/09/06 01:08:56;;;;;;;;;;;25.10;70.10;;;;;;5077637;28;19912;-55
2023/09/06 01:11:23;;;;;;;;;;;25.10;70.10;;;;;;5073779;28;20364;-55
2023/09/06 01:13:52;;;;;;;;;;;25.10;70.10;;;;;;5073129;28;20446;-56
2023/09/06 01:16:28;;;;;;;;;;;25.10;70.10;;;;;;5076947;28;20390;-55
2023/09/06 01:18:54;;;;;;;;;;;25.10;70.00;;;;;;5075500;28;19931;-55
2023/09/06 01:21:22;;;;;;;;;;;25.10;70.10;;;;;;5088715;28;19916;-56
2023/09/06 01:23:48;;;;;;;;;;;25.10;70.00;;;;;;5073224;28;19909;-55
2023/09/06 01:26:13;;;;;;;;;;;25.10;70.00;;;;;;5076662;28;19975;-56
2023/09/06 01:28:39;;;;;;;;;;;25.10;69.90;;;;;;5092009;28;19962;-56
2023/09/06 01:31:04;;;;;;;;;;;25.10;69.90;;;;;;5089125;28;19908;-56
2023/09/06 01:33:30;;;;;;;;;;;25.10;70.70;;;;;;5091450;28;19995;-56
2023/09/06 01:35:56;;;;;;;;;;;25.00;69.90;;;;;;5093349;28;19951;-56
2023/09/06 01:38:21;;;;;;;;;;;25.10;70.00;;;;;;5091768;28;19912;-56
2023/09/06 01:40:47;;;;;;;;;;;25.10;70.00;;;;;;5093077;28;19912;-55
2023/09/06 01:43:12;;;;;;;;;;;25.10;69.80;;;;;;5093123;28;19908;-56
2023/09/06 01:45:51;;;;;;;;;;;25.10;69.90;;;;;;5093151;28;19930;-56
2023/09/06 01:48:17;;;;;;;;;;;25.00;69.80;;;;;;5090867;28;19925;-55
2023/09/06 01:50:43;;;;;;;;;;;25.10;69.90;;;;;;5093194;28;20015;-55
2023/09/06 01:53:08;;;;;;;;;;;25.00;69.90;;;;;;5095718;28;20005;-56
2023/09/06 01:55:34;;;;;;;;;;;25.10;70.00;;;;;;5086181;28;19908;-55
2023/09/06 01:57:59;;;;;;;;;;;25.10;70.00;;;;;;5091205;28;19981;-55
2023/09/06 02:00:27;;;;;;;;;;;25.00;69.90;;;;;;5097306;28;19912;-56
2023/09/06 02:02:56;;;;;;;;;;;25.00;69.80;;;;;;5095203;28;19912;-56
2023/09/06 02:05:22;;;;;;;;;;;25.00;69.90;;;;;;5097180;28;19951;-55
2023/09/06 02:07:48;;;;;;;;;;;25.10;69.80;;;;;;5097078;28;19915;-56
2023/09/06 02:10:13;;;;;;;;;;;25.00;69.80;;;;;;5094478;28;19912;-56
2023/09/06 02:12:38;;;;;;;;;;;25.00;69.80;;;;;;5095661;28;20330;-55
2023/09/06 02:15:07;;;;;;;;;;;25.00;69.80;;;;;;5096939;28;19951;-56
2023/09/06 02:17:33;;;;;;;;;;;25.00;69.90;;;;;;5094592;28;20394;-55
2023/09/06 02:20:12;;;;;;;;;;;25.00;70.00;;;;;;5096856;28;20382;-55
2023/09/06 02:22:39;;;;;;;;;;;25.00;69.70;;;;;;5095503;28;19961;-56
2023/09/06 02:25:06;;;;;;;;;;;25.00;69.80;;;;;;5089915;28;19909;-55
2023/09/06 02:27:31;;;;;;;;;;;25.00;69.60;;;;;;5083516;28;20335;-55
2023/09/06 02:29:57;;;;;;;;;;;25.00;69.80;;;;;;5096761;28;19962;-56
2023/09/06 02:32:24;;;;;;;;;;;25.00;69.70;;;;;;5094691;28;19916;-55
2023/09/06 02:34:50;;;;;;;;;;;25.00;69.70;;;;;;5096621;28;19915;-56
2023/09/06 02:37:15;;;;;;;;;;;24.90;69.60;;;;;;5096404;28;19908;-55
2023/09/06 02:39:41;;;;;;;;;;;24.90;69.70;;;;;;5086606;28;19916;-55
2023/09/06 02:42:06;;;;;;;;;;;25.00;69.80;;;;;;5076280;28;19912;-56
2023/09/06 02:44:31;;;;;;;;;;;25.00;69.70;;;;;;5076184;28;20462;-54
2023/09/06 02:46:57;;;;;;;;;;;24.90;69.70;;;;;;5076130;28;19972;-55
2023/09/06 02:49:26;;;;;;;;;;;24.90;69.70;;;;;;5092002;28;20311;-55
2023/09/06 02:51:51;;;;;;;;;;;24.90;69.70;;;;;;5096311;28;20304;-56
2023/09/06 02:54:17;;;;;;;;;;;24.90;69.70;;;;;;5096088;28;20410;-56
2023/09/06 02:56:45;;;;;;;;;;;24.90;69.90;;;;;;5076087;28;19912;-55
2023/09/06 02:59:15;;;;;;;;;;;24.90;69.90;;;;;;5090968;28;20368;-56
2023/09/06 03:01:44;;;;;;;;;;;24.90;69.80;;;;;;5094663;28;19930;-56
2023/09/06 03:04:13;;;;;;;;;;;24.90;69.70;;;;;;5092959;28;19952;-55
2023/09/06 03:06:39;;;;;;;;;;;24.90;69.80;;;;;;5095845;28;19930;-55
2023/09/06 03:09:07;;;;;;;;;;;24.90;69.90;;;;;;5094422;28;19908;-56
2023/09/06 03:11:33;;;;;;;;;;;24.90;69.50;;;;;;5095806;28;20287;-56
2023/09/06 03:13:58;;;;;;;;;;;24.90;69.80;;;;;;5095751;28;20002;-55
2023/09/06 03:16:24;;;;;;;;;;;24.90;70.00;;;;;;5095826;28;20244;-55
2023/09/06 03:18:51;;;;;;;;;;;24.90;70.10;;;;;;5093496;28;20338;-57
2023/09/06 03:21:17;;;;;;;;;;;24.90;69.90;;;;;;5095753;28;20383;-55
2023/09/06 03:23:44;;;;;;;;;;;24.90;70.20;;;;;;5095642;28;19995;-56
2023/09/06 03:26:10;;;;;;;;;;;24.80;69.60;;;;;;5079668;28;20436;-55
2023/09/06 03:28:40;;;;;;;;;;;24.80;69.70;;;;;;5082816;28;19912;-56
2023/09/06 03:31:09;;;;;;;;;;;24.80;70.00;;;;;;5095490;28;19999;-55
2023/09/06 03:33:35;;;;;;;;;;;24.80;69.90;;;;;;5092153;28;19912;-56
2023/09/06 03:36:07;;;;;;;;;;;24.80;70.00;;;;;;5095296;28;20058;-55
2023/09/06 03:38:33;;;;;;;;;;;24.80;69.90;;;;;;5095482;28;20371;-55
2023/09/06 03:41:02;;;;;;;;;;;24.80;69.90;;;;;;5092250;28;19916;-56
2023/09/06 03:43:30;;;;;;;;;;;24.80;69.90;;;;;;5095193;28;19930;-55
2023/09/06 03:45:58;;;;;;;;;;;24.80;70.10;;;;;;5095128;28;19912;-56
2023/09/06 03:48:25;;;;;;;;;;;24.80;69.80;;;;;;5093198;28;19916;-57
2023/09/06 03:50:57;;;;;;;;;;;24.80;69.70;;;;;;5094775;28;19959;-55
2023/09/06 03:53:25;;;;;;;;;;;24.80;69.80;;;;;;5095067;28;19908;-55
2023/09/06 03:55:51;;;;;;;;;;;24.80;69.70;;;;;;5083862;28;20291;-55
2023/09/06 03:58:17;;;;;;;;;;;24.80;69.70;;;;;;5093695;28;19912;-56
2023/09/06 04:00:44;;;;;;;;;;;24.80;69.90;;;;;;5092194;28;19963;-55
2023/09/06 04:03:10;;;;;;;;;;;24.80;69.70;;;;;;5093677;28;19909;-55
2023/09/06 04:05:36;;;;;;;;;;;24.80;69.90;;;;;;5092519;28;20015;-56
2023/09/06 04:08:04;;;;;;;;;;;24.80;69.70;;;;;;5094780;28;20376;-55
2023/09/06 04:10:40;;;;;;;;;;;24.80;70.00;;;;;;5090757;28;19916;-56
2023/09/06 04:13:07;;;;;;;;;;;24.80;70.10;;;;;;5094682;28;20291;-55
2023/09/06 04:15:35;;;;;;;;;;;24.80;69.70;;;;;;5093756;28;19956;-55
2023/09/06 04:18:02;;;;;;;;;;;24.70;69.70;;;;;;5094493;28;19979;-56
2023/09/06 04:20:30;;;;;;;;;;;24.80;69.90;;;;;;5092210;28;19916;-56
2023/09/06 04:22:56;;;;;;;;;;;24.70;69.50;;;;;;5094358;28;19909;-55
2023/09/06 04:25:22;;;;;;;;;;;24.70;69.70;;;;;;5085066;28;19915;-56
2023/09/06 04:27:48;;;;;;;;;;;24.80;70.00;;;;;;5074054;28;19916;-56
2023/09/06 04:30:17;;;;;;;;;;;24.70;69.90;;;;;;5086451;28;19913;-55
2023/09/06 04:32:46;;;;;;;;;;;24.70;69.90;;;;;;5094194;28;19908;-55
2023/09/06 04:35:13;;;;;;;;;;;24.70;69.70;;;;;;5091320;28;19913;-56
2023/09/06 04:37:39;;;;;;;;;;;24.70;69.70;;;;;;5094171;28;19958;-56
2023/09/06 04:40:08;;;;;;;;;;;24.70;69.80;;;;;;5094041;28;19912;-56
2023/09/06 04:42:33;;;;;;;;;;;24.70;69.90;;;;;;5091371;28;19912;-55
2023/09/06 04:44:58;;;;;;;;;;;24.70;69.80;;;;;;5094005;28;19912;-56
2023/09/06 04:47:24;;;;;;;;;;;24.70;69.80;;;;;;5093976;28;19908;-56
2023/09/06 04:49:49;;;;;;;;;;;24.70;69.40;;;;;;5090935;28;19928;-55
2023/09/06 04:52:15;;;;;;;;;;;24.70;69.80;;;;;;5093845;28;20358;-57
2023/09/06 04:54:43;;;;;;;;;;;24.70;69.90;;;;;;5090905;28;19913;-55
2023/09/06 04:57:08;;;;;;;;;;;24.70;69.60;;;;;;5073625;28;19908;-55
2023/09/06 04:59:36;;;;;;;;;;;24.70;69.60;;;;;;5075674;28;19916;-55
2023/09/06 05:02:02;;;;;;;;;;;24.70;69.60;;;;;;5092403;28;19908;-55
2023/09/06 05:04:30;;;;;;;;;;;24.60;69.60;;;;;;5092035;28;20411;-55
2023/09/06 05:06:55;;;;;;;;;;;24.70;69.60;;;;;;5093592;28;19930;-56
2023/09/06 05:09:21;;;;;;;;;;;24.70;69.70;;;;;;5093535;28;19908;-56
2023/09/06 05:11:47;;;;;;;;;;;24.60;69.60;;;;;;5089791;28;19928;-57
2023/09/06 05:14:12;;;;;;;;;;;24.70;69.50;;;;;;5073242;28;20372;-56
2023/09/06 05:16:38;;;;;;;;;;;24.70;69.50;;;;;;5083939;28;19959;-55
2023/09/06 05:19:03;;;;;;;;;;;24.70;69.60;;;;;;5093428;28;19954;-55
2023/09/06 05:21:29;;;;;;;;;;;24.70;69.30;;;;;;5091020;28;20003;-56
2023/09/06 05:23:54;;;;;;;;;;;24.70;70.00;;;;;;5089794;28;19912;-56
2023/09/06 05:26:20;;;;;;;;;;;24.70;69.30;;;;;;5075711;28;20460;-56
2023/09/06 05:28:47;;;;;;;;;;;24.70;69.30;;;;;;5071410;28;19908;-56
2023/09/06 05:31:12;;;;;;;;;;;24.70;69.30;;;;;;5073138;28;20419;-56
2023/09/06 05:33:38;;;;;;;;;;;24.70;69.20;;;;;;5074362;28;19908;-55
2023/09/06 05:36:03;;;;;;;;;;;24.70;69.40;;;;;;5088662;28;20352;-56
2023/09/06 05:38:29;;;;;;;;;;;24.60;69.40;;;;;;5077952;28;19931;-56
2023/09/06 05:40:54;;;;;;;;;;;24.70;69.50;;;;;;5077256;28;20269;-56
2023/09/06 05:43:20;;;;;;;;;;;24.60;69.40;;;;;;5089992;28;19987;-56
2023/09/06 05:45:45;;;;;;;;;;;24.60;69.40;;;;;;5092990;28;20006;-56
2023/09/06 05:48:11;;;;;;;;;;;24.60;69.40;;;;;;5092891;28;19908;-55
2023/09/06 05:50:36;;;;;;;;;;;24.60;69.40;;;;;;5086764;28;19924;-56
2023/09/06 05:53:02;;;;;;;;;;;24.60;69.50;;;;;;5090635;28;19951;-55
2023/09/06 05:55:28;;;;;;;;;;;24.60;69.50;;;;;;5082980;28;19908;-56
2023/09/06 05:57:53;;;;;;;;;;;24.50;69.50;;;;;;5072744;28;20284;-56
2023/09/06 06:00:21;;;;;;;;;;;24.60;69.60;;;;;;5072522;28;19912;-55
2023/09/06 06:02:47;;;;;;;;;;;24.60;69.50;;;;;;5072834;28;19913;-55
2023/09/06 06:05:13;;;;;;;;;;;24.50;69.40;;;;;;5089741;28;19919;-56
2023/09/06 06:07:39;;;;;;;;;;;24.60;69.60;;;;;;5092864;28;19916;-56
2023/09/06 06:10:06;;;;;;;;;;;24.60;69.70;;;;;;5091523;28;19908;-55
2023/09/06 06:12:32;;;;;;;;;;;24.50;69.60;;;;;;5092836;28;19908;-55
2023/09/06 06:15:00;;;;;;;;;;;24.60;69.80;;;;;;5088731;28;20498;-55
2023/09/06 06:17:25;;;;;;;;;;;24.60;69.70;;;;;;5092822;28;19915;-56
2023/09/06 06:19:51;;;;;;;;;;;24.50;69.70;;;;;;5090701;28;19916;-56
2023/09/06 06:22:16;;;;;;;;;;;24.50;69.60;;;;;;5090292;28;19959;-55
2023/09/06 06:24:43;;;;;;;;;;;24.50;69.60;;;;;;5088871;28;19909;-55
2023/09/06 06:27:09;;;;;;;;;;;24.50;69.60;;;;;;5072539;28;19963;-56
2023/09/06 06:29:34;;;;;;;;;;;24.50;69.70;;;;;;5077440;28;19916;-56
2023/09/06 06:31:59;;;;;;;;;;;24.50;69.80;;;;;;5092494;28;20379;-56
2023/09/06 06:34:25;;;;;;;;;;;24.50;69.60;;;;;;5089988;28;19912;-56
2023/09/06 06:36:50;;;;;;;;;;;24.50;69.50;;;;;;5092535;28;19954;-55
2023/09/06 06:39:17;;;;;;;;;;;24.50;69.60;;;;;;5093499;28;19974;-55
2023/09/06 06:41:43;;;;;;;;;;;24.50;69.80;;;;;;5096339;28;20368;-56
2023/09/06 06:44:08;;;;;;;;;;;24.50;69.80;;;;;;5094966;28;19919;-57
2023/09/06 06:46:35;;;;;;;;;;;24.50;69.80;;;;;;5096179;28;19909;-56
2023/09/06 06:49:02;;;;;;;;;;;24.50;69.90;;;;;;5093734;28;20371;-56
2023/09/06 06:51:31;;;;;;;;;;;24.50;69.90;;;;;;5096034;28;19924;-56
2023/09/06 06:53:57;;;;;;;;;;;24.50;70.00;;;;;;5096089;28;20064;-56
2023/09/06 06:56:22;;;;;;;;;;;24.50;70.00;;;;;;5091579;28;20387;-56
2023/09/06 06:58:48;;;;;;;;;;;24.50;69.90;;;;;;5096049;28;19909;-55
2023/09/06 07:01:14;;;;;;;;;;;24.50;70.00;;;;;;5093455;28;19916;-55
2023/09/06 07:03:40;;;;;;;;;;;24.50;70.00;;;;;;5093352;28;20364;-56
2023/09/06 07:06:06;;;;;;;;;;;24.50;70.10;;;;;;5095897;28;20268;-55
2023/09/06 07:08:31;;;;;;;;;;;24.50;70.00;;;;;;5095958;28;19916;-56
2023/09/06 07:10:59;;;;;;;;;;;24.40;70.00;;;;;;5094366;28;19913;-55
2023/09/06 07:13:25;;;;;;;;;;;24.50;70.20;;;;;;5095943;28;19908;-56
2023/09/06 07:15:50;;;;;;;;;;;24.40;70.10;;;;;;5095669;28;20282;-56
2023/09/06 07:18:16;;;;;;;;;;;24.40;70.00;;;;;;5091277;28;19919;-56
2023/09/06 07:20:42;;;;;;;;;;;24.50;70.10;;;;;;5095623;28;20025;-56
2023/09/06 07:23:07;;;;;;;;;;;24.40;70.00;;;;;;5093199;28;19941;-55
2023/09/06 07:25:33;;;;;;;;;;;24.50;69.90;;;;;;5084740;28;19954;-55
2023/09/06 07:27:59;;;;;;;;;;;24.40;70.00;;;;;;5081799;28;19912;-55
2023/09/06 07:30:27;;;;;;;;;;;24.50;70.10;;;;;;5092802;28;19998;-55
2023/09/06 07:32:53;;;;;;;;;;;24.40;70.00;;;;;;5092815;28;20448;-56
2023/09/06 07:35:18;;;;;;;;;;;24.50;70.00;;;;;;5088464;28;19912;-55
2023/09/06 07:37:44;;;;;;;;;;;24.50;70.60;;;;;;5095257;28;20265;-56
2023/09/06 07:40:10;;;;;;;;;;;24.40;70.60;;;;;;5093184;28;19916;-56
2023/09/06 07:42:39;;;;;;;;;;;24.40;70.40;;;;;;5093173;28;19912;-56
2023/09/06 07:45:06;;;;;;;;;;;24.50;70.60;;;;;;5092535;28;19916;-56
2023/09/06 07:47:32;;;;;;;;;;;24.40;70.40;;;;;;5094353;28;19908;-55
2023/09/06 07:49:57;;;;;;;;;;;24.40;70.70;;;;;;5092107;28;20284;-56
2023/09/06 07:52:23;;;;;;;;;;;24.50;71.10;;;;;;5095214;28;20049;-56
2023/09/06 07:54:48;;;;;;;;;;;24.50;70.80;;;;;;5087579;28;19913;-56
2023/09/06 07:57:14;;;;;;;;;;;24.50;70.90;;;;;;5081641;28;19914;-55
2023/09/06 07:59:40;;;;;;;;;;;24.50;71.10;;;;;;5094791;28;19912;-56
2023/09/06 08:02:05;;;;;;;;;;;24.50;71.10;;;;;;5088875;28;19920;-55
2023/09/06 08:04:31;;;;;;;;;;;24.50;71.10;;;;;;5074602;28;19909;-55
2023/09/06 08:06:56;;;;;;;;;;;24.50;71.80;;;;;;5074123;28;19916;-55
2023/09/06 08:09:21;;;;;;;;;;;24.50;71.00;;;;;;5094474;28;19973;-56
2023/09/06 08:11:47;;;;;;;;;;;24.60;71.20;;;;;;5090153;28;19916;-56
2023/09/06 08:14:12;;;;;;;;;;;24.60;71.20;;;;;;5094482;28;19909;-56
2023/09/06 08:16:38;;;;;;;;;;;24.70;70.80;;;;;;5092516;28;19912;-56
2023/09/06 08:19:04;;;;;;;;;;;24.70;70.90;;;;;;5094684;28;19908;-56
2023/09/06 08:21:30;;;;;;;;;;;24.80;71.00;;;;;;5093129;28;19935;-55
2023/09/06 08:23:55;;;;;;;;;;;24.80;70.90;;;;;;5094373;28;20369;-56
2023/09/06 08:26:21;;;;;;;;;;;24.80;70.80;;;;;;5075111;28;19913;-56
2023/09/06 08:28:46;;;;;;;;;;;24.90;70.70;;;;;;5087714;28;20018;-55
2023/09/06 08:31:12;;;;;;;;;;;24.90;70.60;;;;;;5088280;28;20380;-56
2023/09/06 08:33:37;;;;;;;;;;;24.90;70.20;;;;;;5094025;28;19977;-56
2023/09/06 08:36:03;;;;;;;;;;;25.00;70.00;;;;;;5084415;28;20009;-56
2023/09/06 08:38:28;;;;;;;;;;;25.00;69.70;;;;;;5089946;28;19912;-56
2023/09/06 08:40:54;;;;;;;;;;;25.10;70.00;;;;;;5091713;28;19916;-56
2023/09/06 08:43:19;;;;;;;;;;;25.10;69.90;;;;;;5088892;28;19912;-56
2023/09/06 08:45:46;;;;;;;;;;;25.10;69.90;;;;;;5078936;28;20417;-56
2023/09/06 08:48:12;;;;;;;;;;;25.20;69.80;;;;;;5073020;28;20352;-56
2023/09/06 08:50:37;;;;;;;;;;;25.10;69.60;;;;;;5082235;28;19920;-56
2023/09/06 08:53:03;;;;;;;;;;;25.20;69.60;;;;;;5086150;28;19912;-56
2023/09/06 08:55:29;;;;;;;;;;;25.20;69.30;;;;;;5080915;28;19912;-56
2023/09/06 08:57:54;;;;;;;;;;;25.20;69.30;;;;;;5073614;28;19915;-56
2023/09/06 09:00:23;;;;;;;;;;;25.20;69.20;;;;;;5072680;28;20018;-56
2023/09/06 09:02:49;;;;;;;;;;;25.30;69.10;;;;;;5088324;28;19913;-56
2023/09/06 09:05:14;;;;;;;;;;;25.40;68.90;;;;;;5090080;28;20042;-56
2023/09/06 09:07:40;;;;;;;;;;;25.40;68.90;;;;;;5090908;28;20333;-56
2023/09/06 09:10:07;;;;;;;;;;;25.40;68.70;;;;;;5090980;28;20025;-55
2023/09/06 09:12:33;;;;;;;;;;;25.40;68.60;;;;;;5091014;28;19912;-56
2023/09/06 09:14:58;;;;;;;;;;;25.50;68.40;;;;;;5087799;28;19919;-56
2023/09/06 09:17:24;;;;;;;;;;;25.60;68.00;;;;;;5088509;28;19913;-56
2023/09/06 09:19:50;;;;;;;;;;;25.50;68.20;;;;;;5092194;28;19912;-57
2023/09/06 09:22:20;;;;;;;;;;;25.50;68.00;;;;;;5093505;28;19912;-56
2023/09/06 09:24:46;;;;;;;;;;;25.50;68.10;;;;;;5089077;28;20345;-56
2023/09/06 09:27:11;;;;;;;;;;;25.50;68.50;;;;;;5081490;28;19952;-56
2023/09/06 09:29:37;;;;;;;;;;;25.40;68.40;;;;;;5090900;28;19923;-56
2023/09/06 09:32:03;;;;;;;;;;;25.50;68.00;;;;;;5093201;28;20006;-56
2023/09/06 09:34:28;;;;;;;;;;;25.60;67.50;;;;;;5091940;28;19915;-55
2023/09/06 09:36:54;;;;;;;;;;;25.70;66.80;;;;;;5090021;28;19916;-56
2023/09/06 09:39:24;;;;;;;;;;;25.80;66.30;;;;;;5089074;28;20010;-56
2023/09/06 09:41:50;;;;;;;;;;;25.90;66.00;;;;;;5092298;28;19923;-56
2023/09/06 09:44:16;;;;;;;;;;;26.00;65.40;;;;;;5092871;28;19909;-56
2023/09/06 09:46:42;;;;;;;;;;;26.00;65.20;;;;;;5091142;28;19915;-56
2023/09/06 09:49:07;;;;;;;;;;;26.00;65.80;;;;;;5088089;28;19922;-56
2023/09/06 09:51:32;;;;;;;;;;;25.90;65.30;;;;;;5091678;28;19913;-56
2023/09/06 09:53:58;;;;;;;;;;;26.10;65.00;;;;;;5092936;28;20013;-55
2023/09/06 09:56:23;;;;;;;;;;;26.10;64.50;;;;;;5084229;28;19916;-56
2023/09/06 09:58:49;;;;;;;;;;;26.20;63.50;;;;;;5091772;28;19923;-56
2023/09/06 10:01:15;;;;;;;;;;;26.20;63.30;;;;;;5082008;28;19963;-56
2023/09/06 10:03:42;;;;;;;;;;;26.30;63.10;;;;;;5084922;28;19952;-56
2023/09/06 10:06:07;;;;;;;;;;;26.40;62.20;;;;;;5089261;28;19921;-56
2023/09/06 10:08:35;;;;;;;;;;;26.40;62.00;;;;;;5090045;28;20003;-56
2023/09/06 10:11:00;;;;;;;;;;;26.40;62.10;;;;;;5091621;28;20380;-56
2023/09/06 10:13:26;;;;;;;;;;;26.40;63.10;;;;;;5085861;28;19976;-56
2023/09/06 10:15:52;;;;;;;;;;;26.40;62.60;;;;;;5074440;28;19938;-56
2023/09/06 10:18:18;;;;;;;;;;;26.40;62.30;;;;;;5084100;28;19919;-56
2023/09/06 10:20:43;;;;;;;;;;;26.50;62.20;;;;;;5094027;28;19916;-56
2023/09/06 10:23:09;;;;;;;;;;;26.50;62.10;;;;;;5092867;28;20284;-56
2023/09/06 10:25:41;;;;;;;;;;;26.60;62.00;;;;;;5085531;28;19909;-56
2023/09/06 10:28:07;;;;;;;;;;;26.60;62.00;;;;;;5076363;28;20284;-56
2023/09/06 10:30:34;;;;;;;;;;;26.60;62.20;;;;;;5089644;28;19908;-56
2023/09/06 10:33:01;;;;;;;;;;;26.50;62.20;;;;;;5096642;28;20003;-55
2023/09/06 10:35:29;;;;;;;;;;;26.70;61.20;;;;;;5096597;28;19908;-56
2023/09/06 10:38:07;;;;;;;;;;;26.70;61.30;;;;;;5095089;28;19912;-56
2023/09/06 10:40:51;;;;;;;;;;;26.60;61.80;;;;;;5094803;28;19919;-56
2023/09/06 10:43:16;;;;;;;;;;;26.60;61.50;;;;;;5094225;28;19919;-56
2023/09/06 10:45:54;;;;;;;;;;;26.80;60.80;;;;;;5090449;28;19912;-56
2023/09/06 10:48:20;;;;;;;;;;;26.80;61.10;;;;;;5075193;28;19912;-56
2023/09/06 10:51:06;;;;;;;;;;;26.80;61.10;;;;;;5070401;28;20249;-55
2023/09/06 10:53:34;;;;;;;;;;;26.80;61.10;;;;;;5055976;28;19913;-56
2023/09/06 10:56:02;;;;;;;;;;;26.80;61.30;;;;;;5069389;28;20372;-56
2023/09/06 10:58:29;;;;;;;;;;;26.80;61.20;;;;;;5075851;28;20265;-55
2023/09/06 11:01:13;;;;;;;;;;;26.80;61.80;;;;;;5088191;28;19926;-56
2023/09/06 11:03:38;;;;;;;;;;;26.80;60.60;;;;;;5095914;28;20299;-56
2023/09/06 11:06:07;;;;;;;;;;;26.80;61.40;;;;;;5094750;28;19908;-56
2023/09/06 11:08:32;;;;;;;;;;;26.90;60.70;;;;;;5095972;28;19915;-56
2023/09/06 11:11:02;;;;;;;;;;;26.90;60.50;;;;;;5095993;28;20356;-56
2023/09/06 11:13:29;;;;;;;;;;;27.00;59.60;;;;;;5095101;28;19912;-55
2023/09/06 11:15:55;;;;;;;;;;;27.00;59.70;;;;;;5094191;28;19916;-56
2023/09/06 11:18:20;;;;;;;;;;;27.00;59.80;;;;;;5095632;28;19996;-56
2023/09/06 11:20:46;;;;;;;;;;;27.10;59.50;;;;;;5092882;28;20356;-55
2023/09/06 11:23:12;;;;;;;;;;;27.20;59.60;;;;;;5093025;28;19955;-56
2023/09/06 11:25:38;;;;;;;;;;;27.20;59.90;;;;;;5085133;28;19958;-56
2023/09/06 11:28:13;;;;;;;;;;;27.10;59.90;;;;;;5092685;28;19955;-56
2023/09/06 11:30:39;;;;;;;;;;;27.20;59.80;;;;;;5090464;28;20348;-56
2023/09/06 11:33:07;;;;;;;;;;;27.10;59.40;;;;;;5096045;28;20007;-56
2023/09/06 11:35:38;;;;;;;;;;;27.20;59.40;;;;;;5095784;28;19916;-56
2023/09/06 11:38:04;;;;;;;;;;;27.10;59.90;;;;;;5101054;28;19909;-56
2023/09/06 11:40:32;;;;;;;;;;;27.10;60.20;;;;;;5082773;28;19966;-56
2023/09/06 11:42:58;;;;;;;;;;;27.20;59.90;;;;;;5089820;28;19916;-56
2023/09/06 11:45:25;;;;;;;;;;;27.30;59.60;;;;;;5092003;28;19908;-56
2023/09/06 11:47:54;;;;;;;;;;;27.30;59.00;;;;;;5094998;28;19912;-56
2023/09/06 11:50:21;;;;;;;;;;;27.40;58.90;;;;;;5091719;28;19992;-56
2023/09/06 11:52:48;;;;;;;;;;;27.30;59.80;;;;;;5094002;28;20546;-56
2023/09/06 11:55:17;;;;;;;;;;;27.30;59.30;;;;;;5086907;28;19909;-56
2023/09/06 11:57:47;;;;;;;;;;;27.40;59.00;;;;;;5077259;28;19923;-56
2023/09/06 12:00:19;;;;;;;;;;;27.40;59.20;;;;;;5098509;28;19916;-56
2023/09/06 12:02:47;;;;;;;;;;;27.40;59.60;;;;;;5094888;28;19946;-55
2023/09/06 12:05:14;;;;;;;;;;;27.20;60.00;;;;;;5094783;28;19912;-56
2023/09/06 12:07:41;;;;;;;;;;;27.30;59.10;;;;;;5094842;28;19940;-55
2023/09/06 12:10:07;;;;;;;;;;;27.40;58.90;;;;;;5093231;28;19974;-56
2023/09/06 12:12:44;;;;;;;;;;;27.40;58.90;;;;;;5094890;28;19959;-56
2023/09/06 12:15:17;;;;;;;;;;;27.40;58.20;;;;;;5091610;28;19912;-56
2023/09/06 12:17:49;;;;;;;;;;;27.50;58.20;;;;;;5094548;28;20403;-56
2023/09/06 12:20:15;;;;;;;;;;;27.60;58.20;;;;;;5094275;28;19957;-56
2023/09/06 12:22:40;;;;;;;;;;;27.50;58.90;;;;;;5094551;28;19908;-56
2023/09/06 12:25:06;;;;;;;;;;;27.50;59.00;;;;;;5082489;28;19912;-56
2023/09/06 12:27:31;;;;;;;;;;;27.60;58.40;;;;;;5074618;28;19944;-56
2023/09/06 12:29:57;;;;;;;;;;;27.70;57.90;;;;;;5086861;28;19916;-56
2023/09/06 12:32:23;;;;;;;;;;;27.70;57.80;;;;;;5094298;28;19954;-56
2023/09/06 12:34:48;;;;;;;;;;;27.80;57.50;;;;;;5091596;28;19909;-56
2023/09/06 12:37:17;;;;;;;;;;;27.70;57.90;;;;;;5092304;28;19973;-56
2023/09/06 12:39:43;;;;;;;;;;;27.70;57.80;;;;;;5094059;28;20296;-56
2023/09/06 12:42:08;;;;;;;;;;;27.80;58.10;;;;;;5094095;28;20018;-56
2023/09/06 12:44:34;;;;;;;;;;;27.80;57.60;;;;;;5091814;28;19919;-56
2023/09/06 12:46:59;;;;;;;;;;;27.80;57.40;;;;;;5091141;28;19938;-56
2023/09/06 12:49:25;;;;;;;;;;;27.90;57.40;;;;;;5093715;28;19920;-56
2023/09/06 12:51:50;;;;;;;;;;;27.90;57.20;;;;;;5093766;28;19943;-56
2023/09/06 12:54:17;;;;;;;;;;;27.90;57.50;;;;;;5093663;28;19912;-56
2023/09/06 12:56:42;;;;;;;;;;;28.00;56.80;;;;;;5076609;28;19912;-56
2023/09/06 12:59:08;;;;;;;;;;;28.00;57.20;;;;;;5091446;28;20322;-55
2023/09/06 13:01:33;;;;;;;;;;;28.00;57.50;;;;;;5093803;28;20004;-56
2023/09/06 13:03:59;;;;;;;;;;;28.00;57.50;;;;;;5093695;28;19912;-56
2023/09/06 13:06:24;;;;;;;;;;;28.00;57.60;;;;;;5092341;28;19921;-56
2023/09/06 13:08:50;;;;;;;;;;;27.90;58.00;;;;;;5093732;28;20287;-56
2023/09/06 13:11:16;;;;;;;;;;;27.80;58.40;;;;;;5093726;28;19908;-56
2023/09/06 13:13:41;;;;;;;;;;;27.90;57.90;;;;;;5091883;28;20014;-55
2023/09/06 13:16:07;;;;;;;;;;;28.00;57.20;;;;;;5076068;28;19916;-56
2023/09/06 13:18:33;;;;;;;;;;;28.10;57.50;;;;;;5093503;28;20368;-56
2023/09/06 13:20:59;;;;;;;;;;;28.10;57.70;;;;;;5093169;28;20014;-56
2023/09/06 13:23:25;;;;;;;;;;;28.00;58.30;;;;;;5093582;28;20421;-55
2023/09/06 13:25:50;;;;;;;;;;;28.10;58.00;;;;;;5077288;28;20371;-56
2023/09/06 13:28:17;;;;;;;;;;;28.10;58.00;;;;;;5073228;28;20288;-56
2023/09/06 13:30:42;;;;;;;;;;;28.20;58.10;;;;;;5086658;28;19955;-56
2023/09/06 13:33:08;;;;;;;;;;;28.20;57.80;;;;;;5093053;28;20260;-56
2023/09/06 13:35:34;;;;;;;;;;;28.10;58.60;;;;;;5091869;28;20368;-55
2023/09/06 13:37:59;;;;;;;;;;;28.10;58.20;;;;;;5093173;28;19915;-56
2023/09/06 13:40:24;;;;;;;;;;;28.20;57.60;;;;;;5092990;28;19915;-56
2023/09/06 13:42:50;;;;;;;;;;;28.30;57.80;;;;;;5093144;28;19914;-56
2023/09/06 13:45:15;;;;;;;;;;;28.30;57.70;;;;;;5091094;28;19912;-55
2023/09/06 13:47:41;;;;;;;;;;;28.30;57.70;;;;;;5092786;28;19908;-55
2023/09/06 13:50:07;;;;;;;;;;;28.20;58.60;;;;;;5092899;28;20334;-55
2023/09/06 13:52:33;;;;;;;;;;;28.00;58.80;;;;;;5092738;28;19911;-55
2023/09/06 13:54:58;;;;;;;;;;;28.20;58.30;;;;;;5083964;28;20387;-55
2023/09/06 13:57:27;;;;;;;;;;;28.30;58.20;;;;;;5091900;28;19955;-55
2023/09/06 13:59:52;;;;;;;;;;;28.20;58.50;;;;;;5090886;28;19916;-57
2023/09/06 14:02:18;;;;;;;;;;;28.10;59.00;;;;;;5092869;28;19908;-55
2023/09/06 14:04:43;;;;;;;;;;;28.10;59.10;;;;;;5091642;28;19997;-55
2023/09/06 14:07:09;;;;;;;;;;;28.20;58.40;;;;;;5091657;28;19916;-56
2023/09/06 14:09:34;;;;;;;;;;;28.30;58.00;;;;;;5092913;28;20359;-56
2023/09/06 14:12:00;;;;;;;;;;;28.30;58.10;;;;;;5092806;28;19912;-56